Pagrindinis puslapis
METAR-TAF:

METAR-TAF

Oro uostai :

Visbis, Gotlandas, Švedija

platuma: 57-40N, ilguma: 018-21E, Aukštis: 51 m

Dabartinis oras

Ataskaita buvo paskelbta 18 minutes, ne 00:50 UTC
Vėjas 21 kt iš Vakarų
Temperatūra 2°C
Drėgmė 87%
Slėgis 983 hPa
Matomumas 10 km arba daugiau

METAR: ESSV 200050Z AUTO 26021KT 9999 SCT011/// BKN013/// OVC017/// 02/00 Q0983

Laikas: 02:08 (01:08 UTC)

Prognozė

Ataskaita buvo paskelbta 7 valandos ir 38 minutes, ne 17:30 UTC
Prognozė galioja nuo 19 metu 18 UTC su 19 metu 20 UTC
Vėjas 20 kt iš Pietvakarių su gūsio iki 31 kt
Matomumas 10 km arba daugiau
Su prošvaistėmis ne aukštis 1000 ft
Tapsmas
nuo 19 metu 18 UTC su 19 metu 20 UTC
Matomumas: 4000 m
Apsiniaukę ne aukštis 800 ft
lietus

TAF: ESSV 191730Z 1918/1920 22020G31KT 9999 BKN010 BECMG 1918/1920 4000 RA OVC008

Orai ataskaitas ir orų prognozės (METAR, TAF).

turimą stotys yra geltonos ir raudonos taškus žemėlapyje.

Perkelti pele per norėdami pamatyti stoties vardą.

Tada spustelėkite, norėdami matyti oro stebėjimo ir prognozės.

Norėdami pakeisti žemėlapį: spustelėkite ant žalios mygtukų su juodo kryžiaus žemyn,; žalią mygtuką su brūkšneliu, jei norite nutolinti; arba žalių rodyklių gretimoms žemėlapius.


METAR-TAF: